Time;durP1;ratioP1;P1;durP2;ratioP2;P2;SDS_P1;SDS_P2;PMS_P1;PMS_P2;Temp;Humidity;BMP_temperature;BMP_pressure;BME280_temperature;BME280_humidity;BME280_pressure;Samples;Min_cycle;Max_cycle;Signal;HPM_P1;HPM_P2
2022/01/14 00:01:52;;;;;;;14.10;8.57;;;5.40;99.90;;;;;;5105001;27;20209;-77
2022/01/14 00:04:20;;;;;;;20.23;9.57;;;5.30;99.90;;;;;;5102678;28;20246;-78
2022/01/14 00:06:51;;;;;;;13.43;8.75;;;5.20;99.90;;;;;;5098711;28;20213;-76
2022/01/14 00:09:19;;;;;;;13.82;8.68;;;5.20;99.90;;;;;;5101967;28;20899;-77
2022/01/14 00:11:51;;;;;;;14.25;7.88;;;5.10;99.90;;;;;;5098511;28;20298;-78
2022/01/14 00:14:24;;;;;;;12.55;7.47;;;5.10;99.90;;;;;;5102200;28;20506;-78
2022/01/14 00:16:53;;;;;;;12.50;6.90;;;5.10;99.90;;;;;;5102070;28;20201;-77
2022/01/14 00:19:21;;;;;;;11.50;7.90;;;5.10;99.90;;;;;;5096682;28;20705;-78
2022/01/14 00:21:51;;;;;;;13.70;8.27;;;5.10;99.90;;;;;;5103693;28;20200;-78
2022/01/14 00:24:27;;;;;;;9.95;7.80;;;5.00;99.90;;;;;;5105253;28;20212;-78
2022/01/14 00:32:36;;;;;;;12.85;8.52;;;5.00;99.90;;;;;;5103609;28;20207;-77
2022/01/14 00:35:05;;;;;;;11.10;7.50;;;5.00;99.90;;;;;;5106726;28;20228;-77
2022/01/14 00:37:34;;;;;;;11.88;6.88;;;5.00;99.90;;;;;;5102442;28;20201;-79
2022/01/14 00:40:03;;;;;;;11.40;7.18;;;5.00;99.90;;;;;;5103909;28;20201;-78
2022/01/14 00:42:31;;;;;;;14.82;7.82;;;5.00;99.90;;;;;;5097009;28;20201;-78
2022/01/14 00:44:59;;;;;;;14.50;7.75;;;5.00;99.90;;;;;;5099228;28;20728;-78
2022/01/14 00:47:28;;;;;;;10.65;7.38;;;5.00;99.90;;;;;;5097665;28;20765;-77
2022/01/14 00:49:56;;;;;;;16.02;8.50;;;5.00;99.90;;;;;;5094205;27;20227;-78
2022/01/14 00:52:25;;;;;;;14.05;7.63;;;5.00;99.90;;;;;;5104057;28;20202;-77
2022/01/14 00:54:54;;;;;;;14.88;8.07;;;5.00;99.90;;;;;;5103106;28;20570;-78
2022/01/14 00:59:14;;;;;;;18.42;9.00;;;5.00;99.90;;;;;;5109765;28;20208;-78
2022/01/14 01:00:15;;;;;;;15.32;8.18;;;5.00;99.90;;;;;;5103910;28;20217;-79
2022/01/14 01:02:43;;;;;;;15.85;9.23;;;4.90;99.90;;;;;;5105708;28;20208;-78
2022/01/14 01:05:13;;;;;;;14.98;8.05;;;4.90;99.90;;;;;;5108953;28;20229;-77
2022/01/14 01:07:42;;;;;;;10.63;7.15;;;4.90;99.90;;;;;;5107228;28;20216;-77
2022/01/14 01:10:13;;;;;;;14.57;9.10;;;4.90;99.90;;;;;;5106262;28;20727;-78
2022/01/14 01:12:49;;;;;;;13.55;8.70;;;4.90;99.90;;;;;;5108502;28;20201;-78
2022/01/14 01:15:19;;;;;;;13.15;8.02;;;4.90;99.90;;;;;;5103427;28;20211;-78
2022/01/14 01:17:48;;;;;;;12.10;8.63;;;4.90;99.90;;;;;;5103762;27;20208;-80
2022/01/14 01:20:18;;;;;;;14.60;8.55;;;4.90;99.90;;;;;;5105147;28;20434;-78
2022/01/14 01:22:47;;;;;;;16.90;10.05;;;5.00;99.90;;;;;;5107766;28;20201;-78
2022/01/14 01:25:20;;;;;;;16.02;9.70;;;4.90;99.90;;;;;;5102104;28;20323;-77
2022/01/14 01:27:50;;;;;;;15.60;9.00;;;5.00;99.90;;;;;;5094877;28;20259;-78
2022/01/14 01:30:48;;;;;;;18.45;9.88;;;4.90;99.90;;;;;;5106731;28;20272;-78
2022/01/14 01:33:16;;;;;;;19.08;9.05;;;4.90;99.90;;;;;;5105778;28;20204;-78
2022/01/14 01:35:45;;;;;;;13.40;9.10;;;4.90;99.90;;;;;;5105810;28;20818;-79
2022/01/14 01:38:16;;;;;;;15.05;9.05;;;4.90;99.90;;;;;;5108264;28;20572;-78
2022/01/14 01:40:48;;;;;;;18.50;10.02;;;4.90;99.90;;;;;;5103851;28;20196;-79
2022/01/14 01:43:20;;;;;;;16.17;8.80;;;4.90;99.90;;;;;;5098251;28;20194;-81
2022/01/14 01:45:50;;;;;;;16.95;9.32;;;5.10;99.90;;;;;;5098485;28;20221;-79
2022/01/14 01:48:18;;;;;;;15.75;8.82;;;4.80;99.90;;;;;;5106267;28;20757;-79
2022/01/14 01:50:47;;;;;;;12.25;8.95;;;4.80;99.90;;;;;;5103777;28;20222;-79
2022/01/14 01:53:15;;;;;;;10.80;8.77;;;4.80;99.90;;;;;;5108270;28;20198;-79
2022/01/14 01:55:43;;;;;;;15.18;9.20;;;4.80;99.90;;;;;;5103176;28;20213;-79
2022/01/14 01:58:13;;;;;;;15.82;8.95;;;4.80;99.90;;;;;;5104233;28;20211;-78
2022/01/14 02:00:41;;;;;;;14.77;10.95;;;4.90;99.90;;;;;;5098253;28;20196;-78
2022/01/14 02:03:13;;;;;;;13.32;8.82;;;4.70;99.90;;;;;;5109568;28;20211;-78
2022/01/14 02:05:41;;;;;;;15.68;8.82;;;4.80;99.90;;;;;;5108811;28;20228;-77
2022/01/14 02:08:09;;;;;;;14.07;8.65;;;4.70;99.90;;;;;;5103183;28;20262;-78
2022/01/14 02:10:38;;;;;;;17.58;9.65;;;4.70;99.90;;;;;;5102194;28;20208;-78
2022/01/14 02:13:07;;;;;;;14.75;9.60;;;4.70;99.90;;;;;;5108604;28;20211;-78
2022/01/14 02:15:47;;;;;;;17.08;8.98;;;4.60;99.90;;;;;;5103933;28;20636;-80
2022/01/14 02:18:41;;;;;;;17.48;9.68;;;4.60;99.90;;;;;;5102576;28;20223;-78
2022/01/14 02:24:09;;;;;;;13.95;9.07;;;4.80;99.90;;;;;;5108979;28;20399;-78
2022/01/14 02:26:49;;;;;;;13.98;9.55;;;4.60;99.90;;;;;;5106429;28;20195;-78
2022/01/14 02:29:17;;;;;;;14.80;8.75;;;4.60;99.90;;;;;;5102234;28;20769;-78
2022/01/14 02:31:46;;;;;;;13.40;9.82;;;4.60;99.90;;;;;;5104851;28;20220;-78
2022/01/14 02:34:16;;;;;;;14.05;9.43;;;4.50;99.90;;;;;;5107970;28;20225;-78
2022/01/14 02:36:47;;;;;;;14.15;8.00;;;4.60;99.90;;;;;;5102985;28;20237;-78
2022/01/14 02:39:17;;;;;;;18.83;9.90;;;4.70;99.90;;;;;;5107600;28;20290;-78
2022/01/14 02:41:48;;;;;;;14.70;8.60;;;4.50;99.90;;;;;;5100426;28;20201;-77
2022/01/14 02:44:23;;;;;;;12.43;7.88;;;4.60;99.90;;;;;;5103038;28;20231;-79
2022/01/14 02:46:55;;;;;;;11.30;7.90;;;4.60;99.90;;;;;;5099689;28;20216;-78
2022/01/14 02:49:26;;;;;;;15.40;8.55;;;4.80;99.90;;;;;;5107808;28;20651;-78
2022/01/14 02:52:04;;;;;;;13.95;8.85;;;4.50;99.90;;;;;;5108850;28;20213;-77
2022/01/14 02:54:40;;;;;;;14.73;9.95;;;4.50;99.90;;;;;;5098991;28;20217;-77
2022/01/14 02:57:10;;;;;;;11.00;7.88;;;4.50;99.90;;;;;;5104558;28;20289;-79
2022/01/14 02:59:40;;;;;;;18.10;8.95;;;4.60;99.90;;;;;;5100556;28;20223;-78
2022/01/14 03:02:10;;;;;;;17.33;9.90;;;4.40;99.90;;;;;;5101558;28;20202;-78
2022/01/14 03:04:42;;;;;;;13.93;9.13;;;4.50;99.90;;;;;;5106832;28;20231;-78
2022/01/14 03:07:12;;;;;;;16.40;9.68;;;4.50;99.90;;;;;;5105828;28;20196;-78
2022/01/14 03:09:41;;;;;;;13.30;8.75;;;4.50;99.90;;;;;;5102889;28;20615;-78
2022/01/14 03:12:10;;;;;;;12.23;8.85;;;4.50;99.90;;;;;;5102829;28;20221;-78
2022/01/14 03:14:39;;;;;;;13.15;7.43;;;4.50;99.90;;;;;;5099173;28;20216;-78
2022/01/14 03:17:07;;;;;;;16.30;9.27;;;4.50;99.90;;;;;;5107363;28;20195;-77
2022/01/14 03:19:35;;;;;;;14.95;7.95;;;4.50;99.90;;;;;;5097812;28;20195;-79
2022/01/14 03:22:07;;;;;;;17.52;7.47;;;4.50;99.90;;;;;;5107536;28;20197;-78
2022/01/14 03:27:24;;;;;;;12.63;8.05;;;4.40;99.90;;;;;;5104710;28;20200;-77
2022/01/14 03:29:52;;;;;;;15.13;8.75;;;4.40;99.90;;;;;;5106489;28;20292;-77
2022/01/14 03:32:20;;;;;;;18.02;8.23;;;4.40;99.90;;;;;;5106209;28;20216;-78
2022/01/14 03:34:48;;;;;;;14.32;8.35;;;4.40;99.90;;;;;;5106178;28;20229;-79
2022/01/14 03:37:16;;;;;;;16.23;8.35;;;4.60;99.90;;;;;;5100578;28;20217;-78
2022/01/14 03:39:46;;;;;;;13.20;9.30;;;4.40;99.90;;;;;;5109076;28;20224;-79
2022/01/14 03:42:14;;;;;;;16.40;7.93;;;4.30;99.90;;;;;;5106067;27;20208;-77
2022/01/14 03:44:43;;;;;;;14.23;8.25;;;4.30;99.90;;;;;;5100335;28;20748;-78
2022/01/14 03:47:11;;;;;;;13.52;8.32;;;4.50;99.90;;;;;;5100658;28;20252;-79
2022/01/14 03:49:39;;;;;;;17.60;9.20;;;4.30;99.90;;;;;;5099188;28;20257;-78
2022/01/14 03:52:08;;;;;;;11.32;7.55;;;4.30;99.90;;;;;;5098650;28;20227;-78
2022/01/14 03:54:36;;;;;;;12.25;7.25;;;4.30;99.90;;;;;;5102208;28;20232;-78
2022/01/14 03:57:06;;;;;;;10.38;6.63;;;4.30;99.90;;;;;;5101797;28;20201;-79
2022/01/14 03:59:35;;;;;;;14.77;8.65;;;4.30;99.90;;;;;;5097716;28;20566;-77
2022/01/14 04:02:04;;;;;;;15.38;7.93;;;4.30;99.90;;;;;;5106115;28;20282;-79
2022/01/14 04:04:33;;;;;;;11.70;8.00;;;4.30;99.90;;;;;;5107926;28;20746;-78
2022/01/14 04:07:02;;;;;;;12.93;7.13;;;4.20;99.90;;;;;;5099072;28;20246;-78
2022/01/14 04:09:35;;;;;;;8.57;6.65;;;4.30;99.90;;;;;;5104232;28;20204;-79
2022/01/14 04:12:09;;;;;;;11.80;8.68;;;4.20;99.90;;;;;;5108466;28;20253;-79
2022/01/14 04:17:23;;;;;;;10.63;6.55;;;4.20;99.90;;;;;;5104509;28;20202;-79
2022/01/14 04:19:51;;;;;;;11.27;7.97;;;4.20;99.90;;;;;;5106184;28;20273;-79
2022/01/14 04:22:20;;;;;;;10.23;7.43;;;4.20;99.90;;;;;;5103443;28;20198;-79
2022/01/14 04:24:48;;;;;;;11.77;7.13;;;4.20;99.90;;;;;;5097244;28;20212;-78
2022/01/14 04:27:17;;;;;;;10.40;6.00;;;4.20;99.90;;;;;;5118214;28;20192;-78
2022/01/14 04:29:45;;;;;;;11.88;6.97;;;4.20;99.90;;;;;;5100487;28;20695;-79
2022/01/14 04:32:14;;;;;;;6.65;5.28;;;4.20;99.90;;;;;;5101785;28;20273;-78
2022/01/14 04:34:42;;;;;;;8.82;6.82;;;4.20;99.90;;;;;;5099375;28;20252;-78
2022/01/14 04:37:10;;;;;;;9.50;7.00;;;4.20;99.90;;;;;;5105377;28;20228;-78
2022/01/14 04:39:38;;;;;;;9.57;6.38;;;4.40;99.90;;;;;;5101013;28;20252;-79
2022/01/14 04:42:07;;;;;;;11.02;6.68;;;4.20;99.90;;;;;;5101277;28;20204;-79
2022/01/14 04:44:37;;;;;;;11.10;7.18;;;4.20;99.90;;;;;;5100629;28;20260;-78
2022/01/14 04:47:17;;;;;;;11.48;6.10;;;4.10;99.90;;;;;;5106016;28;20265;-79
2022/01/14 04:49:46;;;;;;;9.55;6.90;;;4.10;99.90;;;;;;5098924;28;20203;-79
2022/01/14 04:52:14;;;;;;;12.10;8.02;;;4.10;99.90;;;;;;5103062;28;20304;-78
2022/01/14 04:54:42;;;;;;;14.70;7.93;;;4.10;99.90;;;;;;5101810;28;20252;-79
2022/01/14 04:57:11;;;;;;;12.50;7.40;;;4.10;99.90;;;;;;5104568;28;20206;-80
2022/01/14 04:59:41;;;;;;;11.07;6.60;;;4.10;99.90;;;;;;5098211;28;20191;-79
2022/01/14 05:02:09;;;;;;;14.18;7.68;;;4.20;99.90;;;;;;5104209;28;20204;-79
2022/01/14 05:04:38;;;;;;;10.15;6.95;;;4.10;99.90;;;;;;5106370;28;20222;-79
2022/01/14 05:07:11;;;;;;;12.00;6.97;;;4.10;99.90;;;;;;5104165;28;20696;-78
2022/01/14 05:09:43;;;;;;;10.50;6.90;;;4.10;99.90;;;;;;5102366;28;20219;-80
2022/01/14 05:12:12;;;;;;;9.32;7.82;;;4.20;99.90;;;;;;5108927;28;20298;-79
2022/01/14 05:14:41;;;;;;;9.45;6.95;;;4.20;99.90;;;;;;5106326;28;20217;-80
2022/01/14 05:17:10;;;;;;;9.27;6.30;;;4.20;99.90;;;;;;5122625;28;20230;-80
2022/01/14 05:19:39;;;;;;;10.73;6.72;;;4.00;99.90;;;;;;5104506;28;20589;-79
2022/01/14 05:22:10;;;;;;;8.38;6.55;;;3.90;99.90;;;;;;5107056;28;20200;-80
2022/01/14 05:24:39;;;;;;;9.23;5.97;;;3.90;99.90;;;;;;5103776;28;20223;-80
2022/01/14 05:27:07;;;;;;;11.50;6.80;;;4.00;99.90;;;;;;5095890;28;20208;-79
2022/01/14 05:29:35;;;;;;;8.85;6.05;;;4.00;99.90;;;;;;5098495;28;20219;-79
2022/01/14 05:32:13;;;;;;;12.10;6.85;;;4.30;99.90;;;;;;5106191;28;20228;-80
2022/01/14 05:34:43;;;;;;;11.55;6.93;;;3.90;99.90;;;;;;5098182;28;20315;-81
2022/01/14 05:37:13;;;;;;;9.47;7.03;;;4.00;99.90;;;;;;5100093;28;20440;-80
2022/01/14 05:39:41;;;;;;;11.90;6.20;;;4.00;99.90;;;;;;5106996;28;20458;-81
2022/01/14 05:42:11;;;;;;;10.68;5.85;;;4.00;99.90;;;;;;5111830;28;20203;-81
2022/01/14 05:44:40;;;;;;;9.45;6.97;;;4.10;99.90;;;;;;5094641;28;20707;-81
2022/01/14 05:47:09;;;;;;;7.50;5.63;;;4.10;99.90;;;;;;5098329;28;20678;-80
2022/01/14 05:49:37;;;;;;;12.50;7.07;;;4.10;99.90;;;;;;5106683;28;20437;-81
2022/01/14 05:52:07;;;;;;;10.68;7.22;;;4.10;99.90;;;;;;5106290;28;20214;-81
2022/01/14 05:54:35;;;;;;;10.48;6.40;;;4.10;99.90;;;;;;5106567;28;20221;-82
2022/01/14 05:57:04;;;;;;;12.38;7.75;;;4.10;99.90;;;;;;5110921;28;20274;-80
2022/01/14 05:59:32;;;;;;;10.15;5.88;;;4.00;99.90;;;;;;5104163;28;20660;-80
2022/01/14 06:02:02;;;;;;;7.80;6.20;;;4.30;99.90;;;;;;5108790;28;20216;-81
2022/01/14 06:04:31;;;;;;;9.55;6.75;;;4.10;99.90;;;;;;5110175;28;20222;-81
2022/01/14 06:07:02;;;;;;;8.10;6.25;;;4.10;99.90;;;;;;5101067;28;20762;-81
2022/01/14 06:09:30;;;;;;;10.15;6.65;;;4.10;99.90;;;;;;5102720;28;20674;-81
2022/01/14 06:11:58;;;;;;;15.07;6.47;;;4.00;99.90;;;;;;5105640;28;20380;-82
2022/01/14 06:14:26;;;;;;;10.63;6.45;;;4.00;99.90;;;;;;5103060;28;20207;-81
2022/01/14 06:16:55;;;;;;;10.63;6.50;;;4.00;99.90;;;;;;5106492;28;20192;-81
2022/01/14 06:19:23;;;;;;;7.85;5.40;;;4.00;99.90;;;;;;5106040;28;20201;-81
2022/01/14 06:21:53;;;;;;;9.05;7.15;;;4.00;99.90;;;;;;5106478;28;20206;-81
2022/01/14 06:24:21;;;;;;;11.23;8.10;;;4.00;99.90;;;;;;5102484;28;20524;-80
2022/01/14 06:26:49;;;;;;;11.02;6.85;;;4.30;99.90;;;;;;5103469;28;20458;-80
2022/01/14 06:29:19;;;;;;;11.73;7.45;;;4.20;99.90;;;;;;5107759;28;20220;-80
2022/01/14 06:31:47;;;;;;;10.07;5.50;;;4.10;99.90;;;;;;5106223;28;20198;-79
2022/01/14 06:34:15;;;;;;;13.95;7.82;;;4.10;99.90;;;;;;5105132;28;20912;-79
2022/01/14 06:36:44;;;;;;;12.30;6.30;;;4.20;99.90;;;;;;5105055;28;20591;-79
2022/01/14 06:39:13;;;;;;;11.30;8.10;;;4.10;99.90;;;;;;5102253;27;20214;-79
2022/01/14 06:41:42;;;;;;;14.43;7.30;;;4.20;99.90;;;;;;5105211;28;20208;-79
2022/01/14 06:44:10;;;;;;;8.20;5.60;;;4.10;99.90;;;;;;5103357;28;20577;-79
2022/01/14 06:46:39;;;;;;;12.88;7.07;;;4.10;99.90;;;;;;5104171;28;20197;-80
2022/01/14 06:49:07;;;;;;;9.65;6.80;;;4.30;99.90;;;;;;5099851;28;20683;-80
2022/01/14 06:51:35;;;;;;;16.63;8.20;;;4.20;99.90;;;;;;5103663;27;20446;-80
2022/01/14 06:54:04;;;;;;;7.47;6.18;;;4.10;99.90;;;;;;5101814;28;20226;-80
2022/01/14 06:56:33;;;;;;;11.83;7.87;;;4.10;99.90;;;;;;5102580;27;20453;-80
2022/01/14 06:59:06;;;;;;;12.40;6.65;;;4.50;99.90;;;;;;5109617;28;20454;-80
2022/01/14 07:01:34;;;;;;;6.95;6.28;;;4.40;99.90;;;;;;5097164;28;20570;-79
2022/01/14 07:04:03;;;;;;;11.77;7.13;;;4.10;99.90;;;;;;5104461;27;20588;-80
2022/01/14 07:06:31;;;;;;;9.75;6.10;;;4.10;99.90;;;;;;5102820;28;20194;-81
2022/01/14 07:08:59;;;;;;;10.25;6.28;;;4.10;99.90;;;;;;5103424;28;20254;-80
2022/01/14 07:11:34;;;;;;;11.15;7.28;;;4.00;99.90;;;;;;5104154;27;20231;-80
2022/01/14 07:14:04;;;;;;;8.57;6.10;;;4.00;99.90;;;;;;5104064;28;20211;-79
2022/01/14 07:16:33;;;;;;;13.65;6.40;;;4.00;99.90;;;;;;5108412;28;20200;-80
2022/01/14 07:19:03;;;;;;;10.00;6.38;;;4.00;99.90;;;;;;5106378;28;20224;-80
2022/01/14 07:21:33;;;;;;;8.85;6.80;;;4.00;99.90;;;;;;5104013;28;20221;-80
2022/01/14 07:24:01;;;;;;;9.23;6.13;;;4.00;99.90;;;;;;5100744;28;20219;-80
2022/01/14 07:26:29;;;;;;;13.23;7.63;;;4.00;99.90;;;;;;5105169;28;20235;-80
2022/01/14 07:28:58;;;;;;;12.85;7.65;;;4.00;99.90;;;;;;5102094;27;20197;-79
2022/01/14 07:31:27;;;;;;;11.00;7.80;;;4.10;99.90;;;;;;5089545;28;20197;-80
2022/01/14 07:33:56;;;;;;;12.93;7.88;;;4.10;99.90;;;;;;5099467;28;20228;-80
2022/01/14 07:36:24;;;;;;;10.85;7.32;;;4.10;99.90;;;;;;5103519;28;20192;-80
2022/01/14 07:38:52;;;;;;;9.98;6.72;;;4.10;99.90;;;;;;5098939;28;20198;-80
2022/01/14 07:41:21;;;;;;;16.33;7.38;;;4.00;99.90;;;;;;5103584;28;20201;-79
2022/01/14 07:43:49;;;;;;;11.65;7.75;;;4.00;99.90;;;;;;5109787;28;20238;-80
2022/01/14 07:46:18;;;;;;;14.07;8.60;;;4.00;99.90;;;;;;5089613;28;20730;-82
2022/01/14 07:48:47;;;;;;;18.08;10.48;;;4.00;99.90;;;;;;5099235;28;20279;-79
2022/01/14 07:51:16;;;;;;;15.35;8.90;;;4.10;99.90;;;;;;5100229;28;20580;-80
2022/01/14 07:53:44;;;;;;;17.27;8.82;;;4.10;99.90;;;;;;5106110;28;20621;-80
2022/01/14 07:56:13;;;;;;;14.13;7.45;;;4.10;99.90;;;;;;5104658;28;20326;-80
2022/01/14 07:58:42;;;;;;;10.48;7.10;;;4.10;99.90;;;;;;5095510;28;20470;-81
2022/01/14 08:01:11;;;;;;;9.65;6.05;;;4.10;99.90;;;;;;5097719;28;20538;-80
2022/01/14 08:03:39;;;;;;;9.32;5.90;;;4.10;99.90;;;;;;5108503;28;20592;-80
2022/01/14 08:06:10;;;;;;;8.98;6.00;;;4.10;99.90;;;;;;5105412;28;20790;-79
2022/01/14 08:08:39;;;;;;;11.23;6.88;;;4.10;99.90;;;;;;5106709;28;20193;-80
2022/01/14 08:11:07;;;;;;;9.32;6.15;;;4.20;99.90;;;;;;5105939;28;20208;-79
2022/01/14 08:13:36;;;;;;;7.18;4.80;;;4.20;99.90;;;;;;5105420;28;20460;-80
2022/01/14 08:16:05;;;;;;;9.05;5.90;;;4.20;99.90;;;;;;5103877;28;20554;-80
2022/01/14 08:18:33;;;;;;;8.95;6.40;;;4.30;99.90;;;;;;5100417;28;20208;-80
2022/01/14 08:21:01;;;;;;;9.27;5.38;;;4.40;99.90;;;;;;5105445;28;20579;-79
2022/01/14 08:23:31;;;;;;;8.60;5.88;;;4.50;99.90;;;;;;5107391;28;20194;-79
2022/01/14 08:25:59;;;;;;;7.40;4.75;;;4.60;99.90;;;;;;5096531;28;20193;-80
2022/01/14 08:28:28;;;;;;;9.15;5.22;;;4.70;99.90;;;;;;5106181;28;20266;-79
2022/01/14 08:30:56;;;;;;;8.85;5.65;;;4.80;99.90;;;;;;5092712;28;20751;-79
2022/01/14 08:33:25;;;;;;;9.00;4.82;;;4.80;99.90;;;;;;5101216;28;20197;-79
2022/01/14 08:35:53;;;;;;;6.40;3.97;;;4.90;99.90;;;;;;5099990;28;20194;-80
2022/01/14 08:38:21;;;;;;;6.60;4.40;;;5.00;99.90;;;;;;5106567;28;20208;-80
2022/01/14 08:40:51;;;;;;;5.50;4.05;;;5.00;99.90;;;;;;5103455;28;20211;-80
2022/01/14 08:43:21;;;;;;;6.78;4.50;;;5.10;99.90;;;;;;5099762;28;20207;-79
2022/01/14 08:45:50;;;;;;;7.53;5.07;;;5.20;99.90;;;;;;5103976;28;20298;-80
2022/01/14 08:48:18;;;;;;;8.48;5.45;;;5.20;99.90;;;;;;5105016;28;20202;-79
2022/01/14 08:50:47;;;;;;;7.10;5.10;;;5.60;99.90;;;;;;5106160;28;20203;-80
2022/01/14 08:53:15;;;;;;;5.35;3.85;;;5.40;99.90;;;;;;5106181;28;20256;-80
2022/01/14 08:55:44;;;;;;;6.85;3.97;;;5.40;99.90;;;;;;5104388;28;20246;-80
2022/01/14 08:58:13;;;;;;;10.93;5.30;;;5.50;99.90;;;;;;5100393;28;20205;-80
2022/01/14 09:00:41;;;;;;;6.00;4.88;;;5.60;99.90;;;;;;5097798;28;20589;-80
2022/01/14 09:03:10;;;;;;;11.20;6.55;;;5.60;99.90;;;;;;5102391;28;20229;-80
2022/01/14 09:05:38;;;;;;;12.65;7.85;;;5.70;99.90;;;;;;5105309;28;20230;-81
2022/01/14 09:08:07;;;;;;;12.55;7.38;;;5.60;99.90;;;;;;5101629;28;20251;-80
2022/01/14 09:10:35;;;;;;;9.98;6.63;;;5.70;99.90;;;;;;5108052;27;20253;-81
2022/01/14 09:13:04;;;;;;;11.77;7.45;;;5.70;99.90;;;;;;5106080;28;20207;-81
2022/01/14 09:15:34;;;;;;;9.85;7.13;;;5.70;99.90;;;;;;5103487;28;20221;-81
2022/01/14 09:18:02;;;;;;;13.70;7.35;;;5.80;99.90;;;;;;5107307;28;20202;-81
2022/01/14 09:20:31;;;;;;;10.05;7.53;;;5.90;99.90;;;;;;5106197;28;20607;-79
2022/01/14 09:22:59;;;;;;;10.35;7.40;;;5.90;99.90;;;;;;5110812;28;20205;-80
2022/01/14 09:25:27;;;;;;;9.93;6.88;;;6.00;99.90;;;;;;5106105;28;20711;-80
2022/01/14 09:27:56;;;;;;;9.88;7.80;;;6.00;99.90;;;;;;5107442;28;20263;-80
2022/01/14 09:30:25;;;;;;;9.57;6.55;;;6.10;99.90;;;;;;5100855;28;20202;-79
2022/01/14 09:32:54;;;;;;;12.10;8.35;;;6.10;99.90;;;;;;5110186;28;20206;-82
2022/01/14 09:35:23;;;;;;;13.10;7.13;;;6.20;99.90;;;;;;5109680;28;20230;-81
2022/01/14 09:37:51;;;;;;;11.07;7.68;;;6.20;99.90;;;;;;5106963;27;20210;-80
2022/01/14 09:40:25;;;;;;;8.70;6.47;;;6.30;99.90;;;;;;5107337;28;20228;-79
2022/01/14 09:42:57;;;;;;;7.47;5.97;;;6.40;99.90;;;;;;5099925;28;20207;-81
2022/01/14 09:45:26;;;;;;;6.88;5.63;;;6.50;99.90;;;;;;5103917;28;20823;-80
2022/01/14 09:47:57;;;;;;;6.85;4.65;;;6.60;99.90;;;;;;5107014;28;20841;-81
2022/01/14 09:50:26;;;;;;;7.35;5.28;;;6.80;99.90;;;;;;5105073;28;20291;-79
2022/01/14 09:52:55;;;;;;;11.77;6.32;;;7.00;99.90;;;;;;5106288;28;20248;-80
2022/01/14 09:55:25;;;;;;;7.73;5.07;;;7.30;99.90;;;;;;5107332;28;20215;-79
2022/01/14 09:57:54;;;;;;;7.50;6.17;;;7.60;99.90;;;;;;5105272;27;20460;-80
2022/01/14 10:00:22;;;;;;;6.07;4.57;;;7.90;99.90;;;;;;5100318;27;20541;-80
2022/01/14 10:02:51;;;;;;;7.20;4.70;;;8.20;99.90;;;;;;5112379;27;20453;-81
2022/01/14 10:05:36;;;;;;;9.23;5.40;;;8.50;99.90;;;;;;5104735;28;20480;-80
2022/01/14 10:08:08;;;;;;;6.43;4.97;;;8.90;99.90;;;;;;5103203;28;20469;-81
2022/01/14 10:10:38;;;;;;;6.80;5.13;;;9.20;99.90;;;;;;5108877;28;20447;-81
2022/01/14 10:13:19;;;;;;;9.77;5.27;;;9.50;99.90;;;;;;5106430;27;20965;-81
2022/01/14 10:15:49;;;;;;;8.70;5.70;;;9.90;99.90;;;;;;5099964;28;20851;-83
2022/01/14 10:18:19;;;;;;;6.93;4.67;;;10.20;99.90;;;;;;5103714;28;20477;-81
2022/01/14 10:20:50;;;;;;;7.03;4.70;;;10.50;99.90;;;;;;5103655;27;20451;-81
2022/01/14 10:23:38;;;;;;;7.63;5.50;;;10.80;99.90;;;;;;5103563;28;20452;-81
2022/01/14 10:26:06;;;;;;;6.60;4.50;;;11.00;99.90;;;;;;5105614;28;20452;-80
2022/01/14 10:28:35;;;;;;;9.37;5.53;;;11.20;99.90;;;;;;5104465;28;20517;-80
2022/01/14 10:31:05;;;;;;;7.90;4.93;;;11.40;99.90;;;;;;5109947;28;20451;-84
2022/01/14 10:33:34;;;;;;;11.90;6.23;;;11.50;99.90;;;;;;5109874;28;20452;-81
2022/01/14 10:36:05;;;;;;;8.03;5.97;;;11.70;99.90;;;;;;5098247;28;20484;-81
2022/01/14 10:38:39;;;;;;;7.53;5.40;;;11.90;99.90;;;;;;5100444;28;20446;-82
2022/01/14 10:41:09;;;;;;;8.00;5.37;;;12.00;99.90;;;;;;5109140;28;20459;-80
2022/01/14 10:43:43;;;;;;;5.87;5.23;;;12.10;99.90;;;;;;5102988;28;20976;-82
2022/01/14 10:46:12;;;;;;;5.40;4.80;;;12.20;99.90;;;;;;5108858;28;20448;-81
2022/01/14 10:48:41;;;;;;;6.03;4.23;;;12.30;99.90;;;;;;5105322;28;20476;-81
2022/01/14 10:51:14;;;;;;;6.00;4.60;;;12.50;99.90;;;;;;5108382;28;20462;-81
2022/01/14 10:53:45;;;;;;;7.03;4.50;;;12.60;99.90;;;;;;5100809;28;20465;-81
2022/01/14 10:56:15;;;;;;;4.73;4.10;;;12.80;99.90;;;;;;5107078;28;20487;-82
2022/01/14 10:58:45;;;;;;;7.93;5.30;;;12.90;99.90;;;;;;5111389;27;21156;-82
2022/01/14 11:01:18;;;;;;;5.23;3.90;;;12.90;99.90;;;;;;5101359;28;20466;-83
2022/01/14 11:03:48;;;;;;;5.60;3.80;;;13.00;99.90;;;;;;5102467;28;20454;-82
2022/01/14 11:06:20;;;;;;;5.40;4.33;;;13.10;99.90;;;;;;5105339;28;20546;-82
2022/01/14 11:08:50;;;;;;;6.47;3.97;;;13.10;99.90;;;;;;5116123;27;20498;-81
2022/01/14 11:11:18;;;;;;;3.70;3.40;;;13.20;99.90;;;;;;5126166;27;20472;-81
2022/01/14 11:13:47;;;;;;;4.80;3.20;;;13.40;99.90;;;;;;5094350;28;20452;-82
2022/01/14 11:16:15;;;;;;;3.23;2.70;;;13.40;99.90;;;;;;5098602;28;20479;-82
2022/01/14 11:18:46;;;;;;;5.10;3.10;;;13.50;99.90;;;;;;5090408;28;20531;-81
2022/01/14 11:24:04;;;;;;;3.67;2.60;;;13.70;99.90;;;;;;5102495;28;20482;-82
2022/01/14 11:26:35;;;;;;;5.47;2.83;;;13.90;99.90;;;;;;5106112;28;20494;-82
2022/01/14 11:29:07;;;;;;;4.40;3.00;;;14.00;99.90;;;;;;5102176;28;20956;-82
2022/01/14 11:31:37;;;;;;;3.40;2.90;;;14.10;99.90;;;;;;5102743;28;20441;-82
2022/01/14 11:34:09;;;;;;;5.10;3.40;;;14.30;99.90;;;;;;5106439;28;20478;-81
2022/01/14 11:36:52;;;;;;;3.47;2.73;;;14.40;99.90;;;;;;5109668;27;20503;-81
2022/01/14 11:39:23;;;;;;;3.20;2.13;;;14.40;99.90;;;;;;5103363;28;20461;-83
2022/01/14 11:41:55;;;;;;;3.07;2.20;;;14.40;99.90;;;;;;5108614;28;21143;-82
2022/01/14 11:44:50;;;;;;;2.87;2.20;;;14.20;99.90;;;;;;5100576;28;20477;-82
2022/01/14 11:47:47;;;;;;;2.87;2.67;;;14.00;99.90;;;;;;5103622;28;20549;-81
2022/01/14 11:50:46;;;;;;;2.80;2.33;;;13.70;97.80;;;;;;5103959;28;20542;-81
2022/01/14 11:53:35;;;;;;;2.80;1.80;;;13.60;97.60;;;;;;5097889;28;20466;-82
2022/01/14 11:56:07;;;;;;;4.30;1.83;;;13.50;98.10;;;;;;5101042;28;20506;-81
2022/01/14 11:58:36;;;;;;;3.63;1.90;;;13.50;98.40;;;;;;5098357;28;20466;-81
2022/01/14 12:01:05;;;;;;;6.30;2.00;;;13.50;99.90;;;;;;5104754;28;20448;-81
2022/01/14 12:03:35;;;;;;;1.70;1.57;;;13.50;99.00;;;;;;5103374;28;20456;-83
2022/01/14 12:06:07;;;;;;;2.80;2.03;;;13.50;99.30;;;;;;5107840;28;20755;-83
2022/01/14 12:08:37;;;;;;;2.40;1.47;;;13.50;98.70;;;;;;5102106;28;20542;-81
2022/01/14 12:11:24;;;;;;;3.10;1.60;;;13.60;99.90;;;;;;5103076;28;20460;-82
2022/01/14 12:13:58;;;;;;;2.83;1.30;;;13.60;99.40;;;;;;5107124;28;20824;-82
2022/01/14 12:19:26;;;;;;;1.60;1.37;;;13.60;99.60;;;;;;5101326;28;20829;-81
2022/01/14 12:22:08;;;;;;;1.87;1.60;;;13.60;99.70;;;;;;5103254;28;20981;-82
2022/01/14 12:24:52;;;;;;;3.77;1.30;;;13.60;99.90;;;;;;5102116;28;21001;-81
2022/01/14 12:27:33;;;;;;;1.03;1.03;;;13.60;99.90;;;;;;5105737;28;20453;-83
2022/01/14 12:30:14;;;;;;;1.47;1.37;;;13.70;99.90;;;;;;5103644;28;20457;-82
2022/01/14 12:32:44;;;;;;;1.93;1.27;;;13.70;99.90;;;;;;5104214;28;20507;-82
2022/01/14 12:35:14;;;;;;;1.13;1.00;;;13.70;99.90;;;;;;5109142;28;20496;-81
2022/01/14 12:37:46;;;;;;;1.50;1.20;;;13.70;99.90;;;;;;5110516;28;20882;-82
2022/01/14 12:40:17;;;;;;;1.63;1.07;;;13.80;99.90;;;;;;5108244;28;20452;-81
2022/01/14 12:42:50;;;;;;;1.33;1.00;;;13.80;99.90;;;;;;5108058;28;20441;-82
2022/01/14 12:45:31;;;;;;;1.33;1.10;;;13.70;99.90;;;;;;5108811;28;20482;-82
2022/01/14 12:48:28;;;;;;;0.80;0.80;;;13.70;99.90;;;;;;5111722;28;20456;-82
2022/01/14 12:51:04;;;;;;;1.10;1.00;;;13.80;99.90;;;;;;5104927;28;20453;-81
2022/01/14 12:53:33;;;;;;;2.80;1.00;;;13.80;99.90;;;;;;5112195;28;20445;-82
2022/01/14 12:56:02;;;;;;;0.93;0.90;;;13.80;99.90;;;;;;5108365;28;20472;-81
2022/01/14 12:58:51;;;;;;;1.13;1.00;;;13.80;99.90;;;;;;5103826;27;20523;-82
2022/01/14 13:01:19;;;;;;;1.23;1.13;;;13.80;99.90;;;;;;5108471;28;20455;-82
2022/01/14 13:03:48;;;;;;;1.40;1.30;;;13.80;99.90;;;;;;5106582;28;20457;-83
2022/01/14 13:06:17;;;;;;;1.13;1.03;;;13.60;99.90;;;;;;5112788;28;20498;-81
2022/01/14 13:08:54;;;;;;;0.80;0.80;;;13.70;99.90;;;;;;5101701;28;20454;-81
2022/01/14 13:11:22;;;;;;;1.53;1.00;;;13.70;99.90;;;;;;5110789;28;20445;-80
2022/01/14 13:14:05;;;;;;;1.67;1.27;;;13.80;99.90;;;;;;5109520;27;20469;-80
2022/01/14 13:16:47;;;;;;;2.53;1.30;;;13.90;99.90;;;;;;5104260;28;20472;-81
2022/01/14 13:19:27;;;;;;;2.60;1.60;;;13.90;99.90;;;;;;5107865;28;20456;-82
2022/01/14 13:21:56;;;;;;;1.50;1.20;;;13.90;99.90;;;;;;5112373;28;20540;-79
2022/01/14 13:24:28;;;;;;;1.83;1.10;;;13.90;99.90;;;;;;5110949;28;20487;-78
2022/01/14 13:27:06;;;;;;;1.33;1.10;;;13.90;99.90;;;;;;5108194;27;20980;-79